sensor_id;sensor_type;location;lat;lon;timestamp;pressure;altitude;pressure_sealevel;temperature;humidity
80180;BME280;69505;52.134;5.438;2023-07-13T00:02:18;101488.66;;;15.95;78.78
80180;BME280;69505;52.134;5.438;2023-07-13T00:04:46;101503.31;;;15.91;78.87
80180;BME280;69505;52.134;5.438;2023-07-13T00:07:12;101494.97;;;15.85;79.22
80180;BME280;69505;52.134;5.438;2023-07-13T00:09:40;101491.88;;;15.79;79.02
80180;BME280;69505;52.134;5.438;2023-07-13T00:12:22;101487.78;;;15.75;79.00
80180;BME280;69505;52.134;5.438;2023-07-13T00:14:49;101495.09;;;15.73;79.80
80180;BME280;69505;52.134;5.438;2023-07-13T00:17:16;101498.31;;;15.77;79.69
80180;BME280;69505;52.134;5.438;2023-07-13T00:19:43;101496.19;;;15.71;79.99
80180;BME280;69505;52.134;5.438;2023-07-13T00:22:10;101499.53;;;15.63;80.21
80180;BME280;69505;52.134;5.438;2023-07-13T00:24:36;101492.63;;;15.60;79.71
80180;BME280;69505;52.134;5.438;2023-07-13T00:27:11;101493.72;;;15.58;79.94
80180;BME280;69505;52.134;5.438;2023-07-13T00:29:38;101492.88;;;15.57;79.79
80180;BME280;69505;52.134;5.438;2023-07-13T00:32:05;101500.59;;;15.51;80.38
80180;BME280;69505;52.134;5.438;2023-07-13T00:34:33;101495.53;;;15.48;79.75
80180;BME280;69505;52.134;5.438;2023-07-13T00:36:59;101486.50;;;15.49;79.81
80180;BME280;69505;52.134;5.438;2023-07-13T00:39:26;101490.44;;;15.45;79.65
80180;BME280;69505;52.134;5.438;2023-07-13T00:41:53;101498.59;;;15.43;80.58
80180;BME280;69505;52.134;5.438;2023-07-13T00:44:20;101487.44;;;15.38;80.27
80180;BME280;69505;52.134;5.438;2023-07-13T00:46:49;101489.84;;;15.41;80.34
80180;BME280;69505;52.134;5.438;2023-07-13T00:49:19;101490.00;;;15.39;80.12
80180;BME280;69505;52.134;5.438;2023-07-13T00:51:50;101492.91;;;15.36;79.89
80180;BME280;69505;52.134;5.438;2023-07-13T00:54:22;101494.88;;;15.34;80.36
80180;BME280;69505;52.134;5.438;2023-07-13T00:56:52;101491.06;;;15.27;80.35
80180;BME280;69505;52.134;5.438;2023-07-13T00:59:20;101492.53;;;15.20;81.04
80180;BME280;69505;52.134;5.438;2023-07-13T01:01:48;101498.78;;;15.20;81.14
80180;BME280;69505;52.134;5.438;2023-07-13T01:04:16;101493.06;;;15.14;81.41
80180;BME280;69505;52.134;5.438;2023-07-13T01:06:43;101494.19;;;15.11;81.16
80180;BME280;69505;52.134;5.438;2023-07-13T01:09:11;101488.00;;;15.11;81.63
80180;BME280;69505;52.134;5.438;2023-07-13T01:11:38;101493.63;;;15.08;81.02
80180;BME280;69505;52.134;5.438;2023-07-13T01:14:05;101484.41;;;15.00;81.76
80180;BME280;69505;52.134;5.438;2023-07-13T01:16:34;101500.03;;;14.95;82.33
80180;BME280;69505;52.134;5.438;2023-07-13T01:19:11;101493.47;;;14.88;82.13
80180;BME280;69505;52.134;5.438;2023-07-13T01:21:40;101505.28;;;14.86;82.54
80180;BME280;69505;52.134;5.438;2023-07-13T01:24:09;101513.44;;;14.84;82.16
80180;BME280;69505;52.134;5.438;2023-07-13T01:26:35;101501.69;;;14.75;82.75
80180;BME280;69505;52.134;5.438;2023-07-13T01:29:02;101515.34;;;14.72;83.51
80180;BME280;69505;52.134;5.438;2023-07-13T01:31:29;101505.00;;;14.68;83.29
80180;BME280;69505;52.134;5.438;2023-07-13T01:33:55;101497.50;;;14.61;83.89
80180;BME280;69505;52.134;5.438;2023-07-13T01:36:23;101500.53;;;14.57;84.10
80180;BME280;69505;52.134;5.438;2023-07-13T01:38:50;101506.03;;;14.55;84.35
80180;BME280;69505;52.134;5.438;2023-07-13T01:41:17;101503.56;;;14.52;84.47
80180;BME280;69505;52.134;5.438;2023-07-13T01:43:43;101511.72;;;14.51;84.16
80180;BME280;69505;52.134;5.438;2023-07-13T01:46:10;101504.34;;;14.43;84.61
80180;BME280;69505;52.134;5.438;2023-07-13T01:48:49;101503.63;;;14.41;84.27
80180;BME280;69505;52.134;5.438;2023-07-13T01:51:16;101509.94;;;14.40;84.35
80180;BME280;69505;52.134;5.438;2023-07-13T01:53:43;101506.81;;;14.35;84.73
80180;BME280;69505;52.134;5.438;2023-07-13T01:56:10;101507.66;;;14.35;84.80
80180;BME280;69505;52.134;5.438;2023-07-13T01:58:37;101516.88;;;14.31;85.40
80180;BME280;69505;52.134;5.438;2023-07-13T02:01:03;101510.81;;;14.29;85.42
80180;BME280;69505;52.134;5.438;2023-07-13T02:03:30;101510.09;;;14.27;85.22
80180;BME280;69505;52.134;5.438;2023-07-13T02:05:57;101512.03;;;14.25;85.25
80180;BME280;69505;52.134;5.438;2023-07-13T02:08:24;101509.75;;;14.20;85.77
80180;BME280;69505;52.134;5.438;2023-07-13T02:10:50;101515.94;;;14.21;85.67
80180;BME280;69505;52.134;5.438;2023-07-13T02:13:17;101514.50;;;14.17;86.08
80180;BME280;69505;52.134;5.438;2023-07-13T02:15:43;101520.31;;;14.11;85.97
80180;BME280;69505;52.134;5.438;2023-07-13T02:18:10;101526.53;;;14.11;86.19
80180;BME280;69505;52.134;5.438;2023-07-13T02:20:36;101536.63;;;14.08;86.22
80180;BME280;69505;52.134;5.438;2023-07-13T02:23:03;101523.63;;;14.03;86.08
80180;BME280;69505;52.134;5.438;2023-07-13T02:25:32;101527.88;;;14.06;86.52
80180;BME280;69505;52.134;5.438;2023-07-13T02:27:59;101530.94;;;14.01;86.80
80180;BME280;69505;52.134;5.438;2023-07-13T02:30:27;101534.56;;;14.00;86.77
80180;BME280;69505;52.134;5.438;2023-07-13T02:32:56;101525.97;;;13.96;86.66
80180;BME280;69505;52.134;5.438;2023-07-13T02:35:23;101524.50;;;13.92;86.53
80180;BME280;69505;52.134;5.438;2023-07-13T02:37:50;101524.84;;;13.88;87.29
80180;BME280;69505;52.134;5.438;2023-07-13T02:40:16;101531.28;;;13.85;87.45
80180;BME280;69505;52.134;5.438;2023-07-13T02:42:43;101534.34;;;13.80;87.16
80180;BME280;69505;52.134;5.438;2023-07-13T02:45:10;101536.88;;;13.82;87.71
80180;BME280;69505;52.134;5.438;2023-07-13T02:47:36;101537.13;;;13.79;87.87
80180;BME280;69505;52.134;5.438;2023-07-13T02:50:03;101527.66;;;13.75;88.40
80180;BME280;69505;52.134;5.438;2023-07-13T02:52:30;101529.25;;;13.77;88.42
80180;BME280;69505;52.134;5.438;2023-07-13T02:54:57;101521.47;;;13.74;88.33
80180;BME280;69505;52.134;5.438;2023-07-13T02:57:23;101521.72;;;13.71;88.88
80180;BME280;69505;52.134;5.438;2023-07-13T02:59:50;101526.34;;;13.69;88.95
80180;BME280;69505;52.134;5.438;2023-07-13T03:02:17;101533.63;;;13.67;88.76
80180;BME280;69505;52.134;5.438;2023-07-13T03:04:43;101527.66;;;13.64;89.39
80180;BME280;69505;52.134;5.438;2023-07-13T03:07:10;101535.56;;;13.65;88.77
80180;BME280;69505;52.134;5.438;2023-07-13T03:09:37;101544.78;;;13.61;89.17
80180;BME280;69505;52.134;5.438;2023-07-13T03:12:04;101541.38;;;13.59;89.42
80180;BME280;69505;52.134;5.438;2023-07-13T03:14:31;101544.28;;;13.56;89.52
80180;BME280;69505;52.134;5.438;2023-07-13T03:16:57;101543.53;;;13.54;89.47
80180;BME280;69505;52.134;5.438;2023-07-13T03:19:24;101541.84;;;13.53;89.50
80180;BME280;69505;52.134;5.438;2023-07-13T03:21:51;101542.59;;;13.55;90.06
80180;BME280;69505;52.134;5.438;2023-07-13T03:24:17;101536.75;;;13.50;89.97
80180;BME280;69505;52.134;5.438;2023-07-13T03:26:44;101548.16;;;13.52;90.47
80180;BME280;69505;52.134;5.438;2023-07-13T03:29:11;101543.91;;;13.49;90.48
80180;BME280;69505;52.134;5.438;2023-07-13T03:31:37;101546.81;;;13.46;90.71
80180;BME280;69505;52.134;5.438;2023-07-13T03:34:05;101551.81;;;13.51;90.87
80180;BME280;69505;52.134;5.438;2023-07-13T03:36:32;101560.75;;;13.50;91.22
80180;BME280;69505;52.134;5.438;2023-07-13T03:39:02;101560.75;;;13.50;91.32
80180;BME280;69505;52.134;5.438;2023-07-13T03:41:29;101558.97;;;13.50;91.59
80180;BME280;69505;52.134;5.438;2023-07-13T03:43:57;101566.81;;;13.52;91.29
80180;BME280;69505;52.134;5.438;2023-07-13T03:46:24;101566.81;;;13.52;91.87
80180;BME280;69505;52.134;5.438;2023-07-13T03:48:51;101563.31;;;13.51;91.75
80180;BME280;69505;52.134;5.438;2023-07-13T03:51:18;101562.38;;;13.52;91.97
80180;BME280;69505;52.134;5.438;2023-07-13T03:53:46;101573.88;;;13.53;91.92
80180;BME280;69505;52.134;5.438;2023-07-13T03:56:15;101571.94;;;13.55;92.04
80180;BME280;69505;52.134;5.438;2023-07-13T03:58:44;101570.97;;;13.56;92.12
80180;BME280;69505;52.134;5.438;2023-07-13T04:01:13;101577.03;;;13.58;92.25
80180;BME280;69505;52.134;5.438;2023-07-13T04:03:40;101577.41;;;13.65;92.09
80180;BME280;69505;52.134;5.438;2023-07-13T04:06:12;101577.41;;;13.65;91.93
80180;BME280;69505;52.134;5.438;2023-07-13T04:08:42;101583.47;;;13.67;91.74
80180;BME280;69505;52.134;5.438;2023-07-13T04:11:09;101587.22;;;13.64;92.22
80180;BME280;69505;52.134;5.438;2023-07-13T04:13:35;101586.03;;;13.68;92.04
80180;BME280;69505;52.134;5.438;2023-07-13T04:16:02;101589.69;;;13.67;91.89
80180;BME280;69505;52.134;5.438;2023-07-13T04:18:28;101591.38;;;13.68;91.84
80180;BME280;69505;52.134;5.438;2023-07-13T04:20:55;101587.13;;;13.66;92.16
80180;BME280;69505;52.134;5.438;2023-07-13T04:23:23;101589.91;;;13.64;92.37
80180;BME280;69505;52.134;5.438;2023-07-13T04:25:52;101587.00;;;13.67;92.16
80180;BME280;69505;52.134;5.438;2023-07-13T04:28:24;101583.34;;;13.68;92.66
80180;BME280;69505;52.134;5.438;2023-07-13T04:30:51;101599.16;;;13.71;92.67
80180;BME280;69505;52.134;5.438;2023-07-13T04:33:18;101603.50;;;13.72;92.43
80180;BME280;69505;52.134;5.438;2023-07-13T04:35:53;101610.69;;;13.83;92.52
80180;BME280;69505;52.134;5.438;2023-07-13T04:38:30;101600.34;;;13.90;92.60
80180;BME280;69505;52.134;5.438;2023-07-13T04:41:00;101606.81;;;13.98;92.22
80180;BME280;69505;52.134;5.438;2023-07-13T04:43:28;101607.03;;;14.07;92.08
80180;BME280;69505;52.134;5.438;2023-07-13T04:45:55;101601.19;;;14.13;91.93
80180;BME280;69505;52.134;5.438;2023-07-13T04:48:23;101598.31;;;14.16;91.75
80180;BME280;69505;52.134;5.438;2023-07-13T04:50:57;101603.16;;;14.22;91.98
80180;BME280;69505;52.134;5.438;2023-07-13T04:53:25;101601.22;;;14.24;91.38
80180;BME280;69505;52.134;5.438;2023-07-13T04:55:52;101612.59;;;14.37;91.87
80180;BME280;69505;52.134;5.438;2023-07-13T04:58:21;101602.03;;;14.47;91.55
80180;BME280;69505;52.134;5.438;2023-07-13T05:00:48;101601.38;;;14.55;91.28
80180;BME280;69505;52.134;5.438;2023-07-13T05:03:15;101600.81;;;14.63;90.99
80180;BME280;69505;52.134;5.438;2023-07-13T05:05:41;101596.91;;;14.67;90.59
80180;BME280;69505;52.134;5.438;2023-07-13T05:08:08;101594.69;;;14.72;90.50
80180;BME280;69505;52.134;5.438;2023-07-13T05:10:35;101609.78;;;14.73;90.54
80180;BME280;69505;52.134;5.438;2023-07-13T05:13:02;101601.75;;;14.73;90.59
80180;BME280;69505;52.134;5.438;2023-07-13T05:15:29;101602.41;;;14.86;90.31
80180;BME280;69505;52.134;5.438;2023-07-13T05:17:56;101606.03;;;14.96;90.30
80180;BME280;69505;52.134;5.438;2023-07-13T05:20:22;101609.66;;;15.07;89.72
80180;BME280;69505;52.134;5.438;2023-07-13T05:22:49;101613.75;;;15.11;90.14
80180;BME280;69505;52.134;5.438;2023-07-13T05:25:17;101613.13;;;15.18;89.81
80180;BME280;69505;52.134;5.438;2023-07-13T05:27:44;101625.31;;;15.32;90.31
80180;BME280;69505;52.134;5.438;2023-07-13T05:30:12;101625.09;;;15.35;89.51
80180;BME280;69505;52.134;5.438;2023-07-13T05:32:39;101619.00;;;15.33;89.40
80180;BME280;69505;52.134;5.438;2023-07-13T05:35:06;101626.25;;;15.42;89.64
80180;BME280;69505;52.134;5.438;2023-07-13T05:37:33;101627.16;;;15.53;89.33
80180;BME280;69505;52.134;5.438;2023-07-13T05:40:00;101633.44;;;15.63;88.77
80180;BME280;69505;52.134;5.438;2023-07-13T05:42:26;101630.03;;;15.61;88.85
80180;BME280;69505;52.134;5.438;2023-07-13T05:44:53;101631.72;;;15.73;89.08
80180;BME280;69505;52.134;5.438;2023-07-13T05:47:20;101635.47;;;15.71;88.60
80180;BME280;69505;52.134;5.438;2023-07-13T05:49:46;101637.50;;;15.78;88.92
80180;BME280;69505;52.134;5.438;2023-07-13T05:52:13;101639.22;;;15.79;88.53
80180;BME280;69505;52.134;5.438;2023-07-13T05:54:39;101643.50;;;15.92;88.23
80180;BME280;69505;52.134;5.438;2023-07-13T05:57:06;101645.63;;;15.98;87.92
80180;BME280;69505;52.134;5.438;2023-07-13T05:59:32;101641.88;;;16.00;88.05
80180;BME280;69505;52.134;5.438;2023-07-13T06:01:59;101651.19;;;16.06;88.07
80180;BME280;69505;52.134;5.438;2023-07-13T06:04:26;101659.09;;;16.08;87.81
80180;BME280;69505;52.134;5.438;2023-07-13T06:06:52;101652.59;;;16.10;88.02
80180;BME280;69505;52.134;5.438;2023-07-13T06:09:19;101655.81;;;16.35;87.77
80180;BME280;69505;52.134;5.438;2023-07-13T06:11:46;101668.97;;;16.38;87.11
80180;BME280;69505;52.134;5.438;2023-07-13T06:14:12;101665.06;;;16.52;86.53
80180;BME280;69505;52.134;5.438;2023-07-13T06:16:39;101674.41;;;16.57;86.61
80180;BME280;69505;52.134;5.438;2023-07-13T06:19:06;101677.34;;;16.54;86.49
80180;BME280;69505;52.134;5.438;2023-07-13T06:21:33;101675.81;;;16.61;85.74
80180;BME280;69505;52.134;5.438;2023-07-13T06:23:59;101674.00;;;16.72;86.50
80180;BME280;69505;52.134;5.438;2023-07-13T06:26:26;101680.50;;;16.79;85.45
80180;BME280;69505;52.134;5.438;2023-07-13T06:28:53;101684.41;;;16.65;85.92
80180;BME280;69505;52.134;5.438;2023-07-13T06:31:19;101683.50;;;16.76;86.85
80180;BME280;69505;52.134;5.438;2023-07-13T06:33:46;101692.03;;;16.91;85.62
80180;BME280;69505;52.134;5.438;2023-07-13T06:36:13;101694.28;;;16.95;84.53
80180;BME280;69505;52.134;5.438;2023-07-13T06:38:39;101693.19;;;17.27;84.33
80180;BME280;69505;52.134;5.438;2023-07-13T06:41:07;101687.09;;;17.25;83.91
80180;BME280;69505;52.134;5.438;2023-07-13T06:43:34;101694.16;;;17.07;84.48
80180;BME280;69505;52.134;5.438;2023-07-13T06:46:01;101689.78;;;17.06;84.39
80180;BME280;69505;52.134;5.438;2023-07-13T06:48:29;101696.28;;;17.13;84.84
80180;BME280;69505;52.134;5.438;2023-07-13T06:50:55;101687.09;;;17.15;84.78
80180;BME280;69505;52.134;5.438;2023-07-13T06:53:23;101685.69;;;17.21;83.91
80180;BME280;69505;52.134;5.438;2023-07-13T06:55:50;101688.66;;;17.37;85.04
80180;BME280;69505;52.134;5.438;2023-07-13T06:58:18;101691.75;;;17.42;83.62
80180;BME280;69505;52.134;5.438;2023-07-13T07:00:46;101691.19;;;17.68;83.31
80180;BME280;69505;52.134;5.438;2023-07-13T07:03:13;101686.16;;;18.12;82.07
80180;BME280;69505;52.134;5.438;2023-07-13T07:05:40;101701.34;;;18.41;79.91
80180;BME280;69505;52.134;5.438;2023-07-13T07:08:06;101704.63;;;18.62;79.67
80180;BME280;69505;52.134;5.438;2023-07-13T07:10:33;101705.56;;;18.43;79.72
80180;BME280;69505;52.134;5.438;2023-07-13T07:13:00;101708.47;;;18.22;80.33
80180;BME280;69505;52.134;5.438;2023-07-13T07:15:26;101710.81;;;18.45;81.43
80180;BME280;69505;52.134;5.438;2023-07-13T07:17:53;101714.44;;;18.54;79.76
80180;BME280;69505;52.134;5.438;2023-07-13T07:20:20;101712.75;;;18.90;79.77
80180;BME280;69505;52.134;5.438;2023-07-13T07:22:47;101711.16;;;18.88;78.84
80180;BME280;69505;52.134;5.438;2023-07-13T07:25:15;101723.56;;;18.71;78.80
80180;BME280;69505;52.134;5.438;2023-07-13T07:27:42;101729.25;;;18.67;78.78
80180;BME280;69505;52.134;5.438;2023-07-13T07:30:12;101728.47;;;18.57;79.37
80180;BME280;69505;52.134;5.438;2023-07-13T07:32:41;101731.34;;;18.46;82.03
80180;BME280;69505;52.134;5.438;2023-07-13T07:35:22;101731.06;;;18.39;82.11
80180;BME280;69505;52.134;5.438;2023-07-13T07:37:48;101730.31;;;18.10;84.08
80180;BME280;69505;52.134;5.438;2023-07-13T07:40:17;101725.81;;;18.00;84.31
80180;BME280;69505;52.134;5.438;2023-07-13T07:42:47;101724.97;;;17.80;86.25
80180;BME280;69505;52.134;5.438;2023-07-13T07:45:14;101721.28;;;17.81;87.07
80180;BME280;69505;52.134;5.438;2023-07-13T07:47:41;101718.06;;;17.88;87.26
80180;BME280;69505;52.134;5.438;2023-07-13T07:50:08;101717.63;;;18.02;88.28
80180;BME280;69505;52.134;5.438;2023-07-13T07:52:35;101713.06;;;18.12;86.90
80180;BME280;69505;52.134;5.438;2023-07-13T07:55:04;101704.81;;;18.14;85.90
80180;BME280;69505;52.134;5.438;2023-07-13T07:57:33;101710.50;;;18.11;85.67
80180;BME280;69505;52.134;5.438;2023-07-13T08:00:04;101703.97;;;18.23;86.12
80180;BME280;69505;52.134;5.438;2023-07-13T08:02:33;101702.63;;;18.37;84.80
80180;BME280;69505;52.134;5.438;2023-07-13T08:05:03;101700.91;;;18.73;83.94
80180;BME280;69505;52.134;5.438;2023-07-13T08:07:33;101700.75;;;20.26;77.60
80180;BME280;69505;52.134;5.438;2023-07-13T08:09:59;101710.69;;;21.11;73.32
80180;BME280;69505;52.134;5.438;2023-07-13T08:12:26;101714.66;;;21.66;70.23
80180;BME280;69505;52.134;5.438;2023-07-13T08:14:56;101713.97;;;21.97;69.21
80180;BME280;69505;52.134;5.438;2023-07-13T08:17:27;101720.00;;;21.08;71.29
80180;BME280;69505;52.134;5.438;2023-07-13T08:19:53;101723.13;;;20.53;75.59
80180;BME280;69505;52.134;5.438;2023-07-13T08:22:20;101704.00;;;20.04;76.43
80180;BME280;69505;52.134;5.438;2023-07-13T08:24:47;101703.78;;;20.58;74.85
80180;BME280;69505;52.134;5.438;2023-07-13T08:27:23;101713.53;;;19.72;75.26
80180;BME280;69505;52.134;5.438;2023-07-13T08:29:51;101721.75;;;19.17;77.14
80180;BME280;69505;52.134;5.438;2023-07-13T08:32:18;101728.94;;;19.26;77.56
80180;BME280;69505;52.134;5.438;2023-07-13T08:34:45;101716.38;;;18.99;76.67
80180;BME280;69505;52.134;5.438;2023-07-13T08:37:12;101703.22;;;20.12;71.96
80180;BME280;69505;52.134;5.438;2023-07-13T08:39:39;101707.13;;;20.25;71.81
80180;BME280;69505;52.134;5.438;2023-07-13T08:44:57;101700.09;;;21.34;68.96
80180;BME280;69505;52.134;5.438;2023-07-13T08:47:28;101700.97;;;20.76;68.50
80180;BME280;69505;52.134;5.438;2023-07-13T08:49:56;101705.47;;;20.59;67.00
80180;BME280;69505;52.134;5.438;2023-07-13T08:52:35;101726.97;;;20.42;68.76
80180;BME280;69505;52.134;5.438;2023-07-13T08:57:41;101728.38;;;20.20;67.75
80180;BME280;69505;52.134;5.438;2023-07-13T09:00:12;101734.50;;;20.04;66.85
80180;BME280;69505;52.134;5.438;2023-07-13T09:02:46;101744.63;;;19.48;68.60
80180;BME280;69505;52.134;5.438;2023-07-13T09:05:38;101736.38;;;19.14;69.75
80180;BME280;69505;52.134;5.438;2023-07-13T09:10:41;101746.72;;;18.91;72.58
80180;BME280;69505;52.134;5.438;2023-07-13T09:15:44;101751.94;;;18.65;73.29
80180;BME280;69505;52.134;5.438;2023-07-13T09:18:20;101739.06;;;18.59;75.02
80180;BME280;69505;52.134;5.438;2023-07-13T09:20:55;101740.53;;;18.81;77.43
80180;BME280;69505;52.134;5.438;2023-07-13T09:23:24;101738.38;;;18.94;79.90
80180;BME280;69505;52.134;5.438;2023-07-13T09:26:14;101745.53;;;19.03;77.43
80180;BME280;69505;52.134;5.438;2023-07-13T09:28:44;101743.63;;;19.14;79.84
80180;BME280;69505;52.134;5.438;2023-07-13T09:31:23;101738.38;;;19.12;78.09
80180;BME280;69505;52.134;5.438;2023-07-13T09:33:50;101752.78;;;19.21;78.41
80180;BME280;69505;52.134;5.438;2023-07-13T09:36:18;101737.56;;;20.36;76.01
80180;BME280;69505;52.134;5.438;2023-07-13T09:38:47;101741.16;;;20.71;71.52
80180;BME280;69505;52.134;5.438;2023-07-13T09:41:28;101737.41;;;20.72;72.23
80180;BME280;69505;52.134;5.438;2023-07-13T09:44:11;101738.25;;;20.72;68.66
80180;BME280;69505;52.134;5.438;2023-07-13T09:46:43;101741.97;;;20.45;71.11
80180;BME280;69505;52.134;5.438;2023-07-13T09:49:11;101739.59;;;20.07;70.55
80180;BME280;69505;52.134;5.438;2023-07-13T09:51:41;101753.13;;;19.54;72.19
80180;BME280;69505;52.134;5.438;2023-07-13T09:54:18;101756.53;;;18.92;73.35
80180;BME280;69505;52.134;5.438;2023-07-13T09:56:45;101786.31;;;18.81;78.33
80180;BME280;69505;52.134;5.438;2023-07-13T09:59:22;101801.56;;;18.43;80.02
80180;BME280;69505;52.134;5.438;2023-07-13T10:01:50;101795.00;;;18.08;84.39
80180;BME280;69505;52.134;5.438;2023-07-13T10:04:18;101786.78;;;17.61;82.78
80180;BME280;69505;52.134;5.438;2023-07-13T10:06:46;101781.41;;;17.41;81.37
80180;BME280;69505;52.134;5.438;2023-07-13T10:09:16;101790.47;;;17.60;86.76
80180;BME280;69505;52.134;5.438;2023-07-13T10:11:43;101789.44;;;18.29;86.02
80180;BME280;69505;52.134;5.438;2023-07-13T10:14:14;101785.44;;;18.90;83.72
80180;BME280;69505;52.134;5.438;2023-07-13T10:16:43;101773.75;;;19.45;78.70
80180;BME280;69505;52.134;5.438;2023-07-13T10:19:19;101777.75;;;19.59;79.53
80180;BME280;69505;52.134;5.438;2023-07-13T10:21:56;101784.50;;;19.99;80.79
80180;BME280;69505;52.134;5.438;2023-07-13T10:24:30;101793.91;;;19.59;80.23
80180;BME280;69505;52.134;5.438;2023-07-13T10:29:42;101795.69;;;19.32;78.93
80180;BME280;69505;52.134;5.438;2023-07-13T10:32:11;101780.09;;;20.16;79.26
80180;BME280;69505;52.134;5.438;2023-07-13T10:34:42;101783.09;;;20.31;80.62
80180;BME280;69505;52.134;5.438;2023-07-13T10:37:23;101783.38;;;20.27;76.90
80180;BME280;69505;52.134;5.438;2023-07-13T10:39:54;101783.44;;;20.36;76.87
80180;BME280;69505;52.134;5.438;2023-07-13T10:42:35;101784.59;;;20.07;78.45
80180;BME280;69505;52.134;5.438;2023-07-13T10:45:13;101788.09;;;19.99;78.89
80180;BME280;69505;52.134;5.438;2023-07-13T10:47:42;101789.19;;;19.89;77.51
80180;BME280;69505;52.134;5.438;2023-07-13T10:50:16;101799.81;;;19.72;78.21
80180;BME280;69505;52.134;5.438;2023-07-13T10:52:49;101802.94;;;19.67;80.27
80180;BME280;69505;52.134;5.438;2023-07-13T10:58:13;101793.00;;;20.82;72.68
80180;BME280;69505;52.134;5.438;2023-07-13T11:01:29;101801.84;;;21.01;77.39
80180;BME280;69505;52.134;5.438;2023-07-13T11:06:39;101796.94;;;20.96;74.25
80180;BME280;69505;52.134;5.438;2023-07-13T11:11:56;101808.97;;;21.69;72.09
80180;BME280;69505;52.134;5.438;2023-07-13T11:16:57;101816.09;;;21.95;63.76
80180;BME280;69505;52.134;5.438;2023-07-13T11:19:28;101805.94;;;21.88;63.09
80180;BME280;69505;52.134;5.438;2023-07-13T11:25:01;101808.97;;;21.61;68.76
80180;BME280;69505;52.134;5.438;2023-07-13T11:27:41;101811.84;;;21.08;70.20
80180;BME280;69505;52.134;5.438;2023-07-13T11:30:25;101805.00;;;21.39;71.97
80180;BME280;69505;52.134;5.438;2023-07-13T11:38:38;101812.50;;;21.02;70.39
80180;BME280;69505;52.134;5.438;2023-07-13T11:41:26;101804.31;;;20.86;71.30
80180;BME280;69505;52.134;5.438;2023-07-13T11:43:55;101812.00;;;20.20;72.24
80180;BME280;69505;52.134;5.438;2023-07-13T11:46:27;101829.44;;;20.52;77.79
80180;BME280;69505;52.134;5.438;2023-07-13T11:48:54;101833.34;;;20.32;77.26
80180;BME280;69505;52.134;5.438;2023-07-13T11:51:29;101845.94;;;20.05;73.15
80180;BME280;69505;52.134;5.438;2023-07-13T11:54:02;101837.22;;;19.57;75.91
80180;BME280;69505;52.134;5.438;2023-07-13T11:56:30;101835.28;;;19.50;78.12
80180;BME280;69505;52.134;5.438;2023-07-13T11:59:05;101833.78;;;19.37;79.59
80180;BME280;69505;52.134;5.438;2023-07-13T12:01:33;101842.00;;;19.36;78.31
80180;BME280;69505;52.134;5.438;2023-07-13T12:04:02;101836.72;;;19.44;79.07
80180;BME280;69505;52.134;5.438;2023-07-13T12:06:35;101845.41;;;19.38;79.55
80180;BME280;69505;52.134;5.438;2023-07-13T12:09:13;101832.81;;;19.38;82.04
80180;BME280;69505;52.134;5.438;2023-07-13T12:11:42;101827.56;;;19.37;78.08
80180;BME280;69505;52.134;5.438;2023-07-13T12:14:14;101829.19;;;19.47;78.29
80180;BME280;69505;52.134;5.438;2023-07-13T12:16:43;101826.94;;;19.43;78.03
80180;BME280;69505;52.134;5.438;2023-07-13T12:19:28;101831.41;;;19.52;78.65
80180;BME280;69505;52.134;5.438;2023-07-13T12:21:57;101833.56;;;19.76;82.28
80180;BME280;69505;52.134;5.438;2023-07-13T12:24:25;101837.31;;;19.83;77.69
80180;BME280;69505;52.134;5.438;2023-07-13T12:26:53;101839.34;;;19.54;78.31
80180;BME280;69505;52.134;5.438;2023-07-13T12:29:21;101839.66;;;19.51;79.68
80180;BME280;69505;52.134;5.438;2023-07-13T12:31:49;101831.88;;;19.47;76.57
80180;BME280;69505;52.134;5.438;2023-07-13T12:34:19;101835.13;;;19.51;82.18
80180;BME280;69505;52.134;5.438;2023-07-13T12:36:46;101837.72;;;19.89;83.39
80180;BME280;69505;52.134;5.438;2023-07-13T12:41:50;101827.75;;;21.20;76.34
80180;BME280;69505;52.134;5.438;2023-07-13T12:44:27;101826.09;;;21.86;75.82
80180;BME280;69505;52.134;5.438;2023-07-13T12:47:06;101823.34;;;21.94;73.59
80180;BME280;69505;52.134;5.438;2023-07-13T12:49:44;101819.97;;;22.08;72.85
80180;BME280;69505;52.134;5.438;2023-07-13T12:52:17;101817.28;;;21.17;70.82
80180;BME280;69505;52.134;5.438;2023-07-13T12:55:02;101828.25;;;20.81;73.54
80180;BME280;69505;52.134;5.438;2023-07-13T12:57:32;101841.22;;;20.51;75.52
80180;BME280;69505;52.134;5.438;2023-07-13T13:00:06;101823.25;;;21.37;68.98
80180;BME280;69505;52.134;5.438;2023-07-13T13:02:49;101826.56;;;21.81;67.70
80180;BME280;69505;52.134;5.438;2023-07-13T13:05:17;101813.38;;;22.19;63.46
80180;BME280;69505;52.134;5.438;2023-07-13T13:07:44;101810.47;;;21.55;66.25
80180;BME280;69505;52.134;5.438;2023-07-13T13:10:14;101836.13;;;21.00;65.08
80180;BME280;69505;52.134;5.438;2023-07-13T13:12:41;101824.88;;;20.79;66.03
80180;BME280;69505;52.134;5.438;2023-07-13T13:15:11;101831.28;;;20.78;69.40
80180;BME280;69505;52.134;5.438;2023-07-13T13:17:38;101827.00;;;21.44;66.30
80180;BME280;69505;52.134;5.438;2023-07-13T13:20:16;101831.97;;;21.73;66.04
80180;BME280;69505;52.134;5.438;2023-07-13T13:22:43;101828.91;;;21.60;65.90
80180;BME280;69505;52.134;5.438;2023-07-13T13:25:11;101835.69;;;21.64;68.37
80180;BME280;69505;52.134;5.438;2023-07-13T13:27:40;101828.25;;;21.74;62.36
80180;BME280;69505;52.134;5.438;2023-07-13T13:30:11;101835.69;;;21.72;64.56
80180;BME280;69505;52.134;5.438;2023-07-13T13:32:47;101836.81;;;21.45;66.83
80180;BME280;69505;52.134;5.438;2023-07-13T13:35:15;101835.88;;;21.95;66.01
80180;BME280;69505;52.134;5.438;2023-07-13T13:37:42;101833.84;;;21.89;63.59